createdAt,value
2018-12-10T00:02:21.192Z,1.30
2018-12-10T00:04:49.474Z,1.53
2018-12-10T00:07:17.763Z,1.70
2018-12-10T00:09:46.066Z,1.60
2018-12-10T00:12:14.338Z,1.60
2018-12-10T00:14:42.638Z,1.40
2018-12-10T00:17:10.924Z,1.60
2018-12-10T00:19:39.190Z,1.53
2018-12-10T00:22:07.566Z,1.50
2018-12-10T00:24:35.866Z,1.80
2018-12-10T00:27:04.188Z,1.80
2018-12-10T00:29:32.472Z,1.60
2018-12-10T00:32:00.755Z,1.60
2018-12-10T00:34:29.050Z,1.60
2018-12-10T00:36:57.358Z,1.50
2018-12-10T00:39:25.666Z,1.60
2018-12-10T00:41:53.948Z,1.40
2018-12-10T00:44:22.228Z,1.90
2018-12-10T00:46:50.512Z,1.40
2018-12-10T00:49:18.797Z,1.30
2018-12-10T00:51:47.072Z,1.60
2018-12-10T00:54:15.353Z,1.53
2018-12-10T00:56:43.638Z,1.70
2018-12-10T00:59:11.920Z,1.60
2018-12-10T01:01:41.250Z,1.43
2018-12-10T01:04:09.781Z,1.40
2018-12-10T01:06:38.056Z,1.50
2018-12-10T01:09:06.723Z,1.60
2018-12-10T01:11:35.015Z,1.70
2018-12-10T01:14:03.392Z,1.67
2018-12-10T01:16:31.673Z,1.47
2018-12-10T01:19:00.178Z,1.30
2018-12-10T01:21:28.486Z,1.30
2018-12-10T01:23:56.935Z,1.43
2018-12-10T01:26:25.193Z,1.60
2018-12-10T01:28:53.498Z,1.40
2018-12-10T01:31:21.811Z,1.30
2018-12-10T01:33:50.104Z,1.40
2018-12-10T01:36:18.389Z,1.50
2018-12-10T01:38:46.705Z,1.30
2018-12-10T01:41:14.990Z,1.40
2018-12-10T01:43:43.280Z,1.30
2018-12-10T01:46:11.563Z,1.43
2018-12-10T01:48:39.865Z,1.30
2018-12-10T01:51:08.153Z,1.30
2018-12-10T01:53:36.448Z,1.50
2018-12-10T01:56:04.734Z,1.40
2018-12-10T01:58:33.013Z,1.40
2018-12-10T02:01:01.398Z,1.50
2018-12-10T02:03:29.677Z,1.17
2018-12-10T02:05:58.011Z,1.30
2018-12-10T02:08:26.834Z,1.70
2018-12-10T02:10:55.147Z,1.40
2018-12-10T02:13:23.409Z,1.30
2018-12-10T02:15:51.711Z,1.97
2018-12-10T02:18:19.999Z,1.33
2018-12-10T02:20:48.288Z,1.40
2018-12-10T02:23:16.561Z,1.33
2018-12-10T02:25:44.858Z,1.50
2018-12-10T02:28:13.163Z,1.33
2018-12-10T02:30:41.447Z,1.30
2018-12-10T02:33:09.738Z,1.30
2018-12-10T02:35:38.128Z,1.40
2018-12-10T02:38:06.422Z,2.57
2018-12-10T02:40:34.804Z,1.50
2018-12-10T02:43:03.107Z,1.30
2018-12-10T02:45:31.398Z,1.10
2018-12-10T02:47:59.682Z,1.33
2018-12-10T02:50:28.051Z,1.30
2018-12-10T02:52:56.349Z,1.17
2018-12-10T02:55:24.632Z,1.40
2018-12-10T02:57:52.923Z,1.40
2018-12-10T03:00:21.189Z,1.33
2018-12-10T03:02:49.493Z,1.40
2018-12-10T03:05:17.801Z,1.17
2018-12-10T03:07:46.096Z,1.40
2018-12-10T03:10:14.395Z,1.33
2018-12-10T03:12:42.698Z,1.20
2018-12-10T03:15:10.986Z,1.20
2018-12-10T03:17:39.270Z,1.30
2018-12-10T03:20:07.564Z,1.40
2018-12-10T03:22:35.835Z,1.37
2018-12-10T03:25:04.168Z,1.30
2018-12-10T03:27:32.490Z,1.37
2018-12-10T03:30:00.760Z,1.17
2018-12-10T03:32:29.044Z,1.20
2018-12-10T03:34:57.329Z,1.20
2018-12-10T03:37:25.620Z,1.33
2018-12-10T03:39:53.913Z,1.50
2018-12-10T03:42:22.199Z,1.43
2018-12-10T03:44:50.512Z,1.30
2018-12-10T03:47:18.791Z,1.20
2018-12-10T03:49:47.074Z,1.30
2018-12-10T03:52:15.346Z,1.20
2018-12-10T03:54:43.642Z,1.30
2018-12-10T03:57:11.922Z,1.63
2018-12-10T03:59:40.210Z,1.30
2018-12-10T04:02:08.526Z,1.20
2018-12-10T04:04:36.826Z,1.20
2018-12-10T04:07:05.226Z,1.00
2018-12-10T04:09:33.628Z,1.40
2018-12-10T04:12:01.954Z,1.30
2018-12-10T04:14:30.218Z,1.30
2018-12-10T04:16:58.496Z,1.30
2018-12-10T04:19:26.867Z,1.30
2018-12-10T04:21:55.166Z,1.23
2018-12-10T04:24:23.557Z,1.20
2018-12-10T04:26:51.844Z,1.23
2018-12-10T04:29:20.134Z,1.17
2018-12-10T04:31:48.428Z,1.13
2018-12-10T04:34:16.804Z,1.10
2018-12-10T04:36:45.096Z,1.40
2018-12-10T04:39:13.394Z,1.33
2018-12-10T04:41:41.703Z,1.23
2018-12-10T04:44:10.005Z,1.10
2018-12-10T04:46:38.286Z,1.20
2018-12-10T04:49:06.563Z,1.30
2018-12-10T04:51:34.850Z,1.20
2018-12-10T04:54:03.167Z,1.13
2018-12-10T04:56:31.578Z,1.27
2018-12-10T04:58:59.977Z,1.20
2018-12-10T05:01:28.363Z,1.13
2018-12-10T05:03:56.669Z,1.10
2018-12-10T05:06:24.939Z,1.20
2018-12-10T05:08:53.233Z,1.20
2018-12-10T05:11:21.555Z,1.10
2018-12-10T05:13:49.826Z,1.23
2018-12-10T05:16:18.231Z,1.20
2018-12-10T05:18:46.512Z,1.23
2018-12-10T05:21:14.785Z,1.30
2018-12-10T05:23:43.065Z,1.20
2018-12-10T05:26:11.356Z,1.40
2018-12-10T05:28:39.641Z,1.40
2018-12-10T05:31:08.011Z,1.27
2018-12-10T05:33:36.287Z,1.30
2018-12-10T05:36:04.567Z,1.47
2018-12-10T05:38:32.859Z,1.50
2018-12-10T05:41:01.153Z,1.40
2018-12-10T05:43:29.443Z,1.20
2018-12-10T05:45:57.750Z,1.30
2018-12-10T05:48:26.035Z,1.30
2018-12-10T05:50:54.337Z,1.20
2018-12-10T05:53:22.625Z,1.27
2018-12-10T05:55:50.902Z,1.20
2018-12-10T05:58:19.295Z,1.60
2018-12-10T06:00:47.593Z,1.20
2018-12-10T06:03:15.908Z,2.00
2018-12-10T06:05:44.197Z,1.63
2018-12-10T06:08:12.471Z,1.20
2018-12-10T06:10:40.837Z,1.20
2018-12-10T06:13:09.139Z,1.20
2018-12-10T06:15:37.459Z,1.37
2018-12-10T06:18:05.845Z,1.30
2018-12-10T06:20:34.176Z,1.43
2018-12-10T06:23:02.655Z,1.60
2018-12-10T06:25:30.926Z,2.57
2018-12-10T06:27:59.239Z,1.20
2018-12-10T06:30:27.525Z,1.30
2018-12-10T06:32:55.813Z,1.50
2018-12-10T06:35:24.181Z,2.93
2018-12-10T06:37:52.475Z,2.03
2018-12-10T06:40:20.755Z,1.27
2018-12-10T06:42:49.034Z,1.27
2018-12-10T06:45:17.328Z,1.47
2018-12-10T06:47:45.626Z,2.27
2018-12-10T06:50:13.934Z,1.10
2018-12-10T06:52:43.046Z,2.53
2018-12-10T06:55:11.745Z,1.40
2018-12-10T06:57:40.112Z,1.40
2018-12-10T07:00:10.527Z,1.60
2018-12-10T07:02:38.836Z,1.27
2018-12-10T07:05:07.117Z,1.20
2018-12-10T07:07:35.431Z,1.40
2018-12-10T07:10:03.742Z,3.50
2018-12-10T07:12:32.046Z,2.13
2018-12-10T07:15:00.360Z,11.23
2018-12-10T07:17:28.753Z,19.23
2018-12-10T07:19:57.069Z,12.23
2018-12-10T07:22:25.395Z,13.80
2018-12-10T07:24:53.711Z,8.07
2018-12-10T07:27:22.143Z,7.23
2018-12-10T07:29:50.459Z,13.40
2018-12-10T07:32:18.731Z,11.27
2018-12-10T07:34:47.039Z,10.77
2018-12-10T07:37:15.328Z,13.53
2018-12-10T07:39:43.609Z,8.30
2018-12-10T07:42:11.907Z,7.67
2018-12-10T07:44:40.207Z,5.80
2018-12-10T07:47:09.038Z,5.97
2018-12-10T07:49:37.329Z,6.60
2018-12-10T07:52:05.743Z,4.93
2018-12-10T07:54:34.024Z,4.67
2018-12-10T07:57:02.337Z,4.00
2018-12-10T07:59:30.612Z,7.00
2018-12-10T08:01:59.058Z,6.90
2018-12-10T08:04:27.348Z,2.43
2018-12-10T08:06:55.614Z,1.90
2018-12-10T08:09:23.899Z,4.20
2018-12-10T08:11:52.283Z,4.70
2018-12-10T08:14:20.577Z,2.87
2018-12-10T08:16:48.888Z,6.10
2018-12-10T08:19:17.179Z,2.83
2018-12-10T08:21:45.468Z,1.90
2018-12-10T08:24:13.736Z,1.63
2018-12-10T08:26:48.757Z,1.53
2018-12-10T08:29:17.079Z,1.63
2018-12-10T08:31:45.360Z,2.00
2018-12-10T08:34:13.679Z,1.93
2018-12-10T08:36:41.950Z,1.93
2018-12-10T08:39:10.247Z,3.67
2018-12-10T08:41:38.551Z,1.47
2018-12-10T08:44:06.836Z,3.20
2018-12-10T08:46:35.148Z,1.17
2018-12-10T08:49:03.438Z,1.97
2018-12-10T08:51:31.799Z,1.60
2018-12-10T08:54:02.621Z,3.07
2018-12-10T08:56:30.944Z,1.60
2018-12-10T08:58:59.290Z,2.63
2018-12-10T09:01:27.582Z,1.57
2018-12-10T09:03:55.918Z,1.50
2018-12-10T09:06:24.204Z,1.63
2018-12-10T09:08:52.514Z,1.77
2018-12-10T09:11:20.804Z,2.40
2018-12-10T09:13:49.086Z,2.67
2018-12-10T09:16:17.393Z,1.60
2018-12-10T09:18:45.670Z,1.77
2018-12-10T09:21:13.982Z,1.33
2018-12-10T09:23:42.276Z,1.53
2018-12-10T09:26:10.580Z,1.93
2018-12-10T09:28:38.888Z,2.23
2018-12-10T09:31:07.192Z,1.90
2018-12-10T09:33:35.474Z,2.30
2018-12-10T09:36:03.771Z,6.60
2018-12-10T09:38:32.085Z,5.33
2018-12-10T09:41:00.372Z,5.53
2018-12-10T09:43:28.665Z,5.90
2018-12-10T09:45:56.965Z,8.47
2018-12-10T09:48:25.345Z,7.23
2018-12-10T09:50:53.618Z,7.83
2018-12-10T09:53:21.935Z,8.83
2018-12-10T09:55:50.234Z,7.03
2018-12-10T09:58:18.526Z,7.47
2018-12-10T10:00:47.025Z,11.57
2018-12-10T10:03:15.348Z,7.67
2018-12-10T10:05:43.658Z,8.67
2018-12-10T10:08:11.976Z,7.37
2018-12-10T10:10:40.292Z,10.67
2018-12-10T10:13:08.596Z,11.50
2018-12-10T10:15:36.911Z,9.93
2018-12-10T10:18:05.205Z,7.33
2018-12-10T10:20:33.532Z,12.27
2018-12-10T10:23:01.853Z,12.17
2018-12-10T10:25:30.159Z,11.27
2018-12-10T10:27:58.454Z,12.47
2018-12-10T10:30:26.758Z,10.60
2018-12-10T10:32:55.054Z,10.90
2018-12-10T10:35:23.557Z,16.40
2018-12-10T10:37:51.848Z,12.17
2018-12-10T10:40:20.142Z,11.70
2018-12-10T10:42:48.467Z,14.87
2018-12-10T10:45:16.737Z,12.60
2018-12-10T10:47:45.161Z,12.50
2018-12-10T10:50:13.530Z,20.53
2018-12-10T10:52:41.822Z,19.47
2018-12-10T10:55:10.162Z,12.70
2018-12-10T10:57:38.480Z,19.17
2018-12-10T11:00:14.131Z,14.03
2018-12-10T11:02:47.206Z,14.43
2018-12-10T11:05:16.086Z,12.07
2018-12-10T11:07:44.418Z,17.57
2018-12-10T11:10:12.764Z,16.03
2018-12-10T11:12:41.102Z,16.10
2018-12-10T11:15:09.459Z,15.13
2018-12-10T11:17:37.754Z,13.40
2018-12-10T11:20:07.080Z,13.10
2018-12-10T11:22:35.409Z,11.73
2018-12-10T11:25:03.716Z,15.17
2018-12-10T11:27:32.018Z,11.13
2018-12-10T11:30:00.311Z,12.97
2018-12-10T11:32:28.632Z,11.23
2018-12-10T11:34:57.891Z,15.80
2018-12-10T11:37:26.166Z,9.90
2018-12-10T11:39:54.471Z,14.57
2018-12-10T11:42:22.794Z,11.27
2018-12-10T11:44:51.087Z,8.43
2018-12-10T11:47:19.381Z,13.93
2018-12-10T11:49:47.653Z,10.90
2018-12-10T11:52:15.984Z,12.57
2018-12-10T11:54:44.269Z,9.30
2018-12-10T11:57:12.553Z,9.87
2018-12-10T11:59:40.831Z,8.57
2018-12-10T12:02:09.117Z,8.47
2018-12-10T12:04:37.417Z,8.17
2018-12-10T12:07:05.705Z,11.53
2018-12-10T12:09:34.009Z,10.37
2018-12-10T12:12:02.305Z,9.27
2018-12-10T12:14:30.599Z,12.87
2018-12-10T12:16:58.895Z,8.63
2018-12-10T12:19:27.169Z,9.90
2018-12-10T12:21:55.557Z,9.97
2018-12-10T12:24:23.859Z,10.13
2018-12-10T12:26:52.154Z,7.87
2018-12-10T12:29:20.438Z,6.47
2018-12-10T12:31:48.704Z,5.93
2018-12-10T12:34:17.012Z,7.00
2018-12-10T12:36:45.308Z,6.50
2018-12-10T12:39:13.606Z,6.40
2018-12-10T12:41:41.897Z,6.97
2018-12-10T12:44:10.201Z,6.53
2018-12-10T12:46:39.628Z,8.00
2018-12-10T12:49:07.955Z,6.50
2018-12-10T12:51:36.259Z,5.97
2018-12-10T12:54:04.617Z,5.40
2018-12-10T12:56:32.907Z,6.20
2018-12-10T12:59:01.197Z,5.63
2018-12-10T13:01:29.569Z,6.03
2018-12-10T13:03:57.871Z,4.70
2018-12-10T13:06:26.175Z,4.83
2018-12-10T13:08:54.578Z,5.63
2018-12-10T13:11:22.889Z,4.83
2018-12-10T13:13:51.186Z,4.33
2018-12-10T13:16:19.560Z,4.60
2018-12-10T13:18:47.838Z,5.50
2018-12-10T13:21:16.125Z,4.20
2018-12-10T13:23:44.431Z,4.70
2018-12-10T13:26:12.745Z,5.10
2018-12-10T13:28:41.030Z,4.00
2018-12-10T13:31:09.311Z,4.10
2018-12-10T13:33:37.622Z,4.00
2018-12-10T13:36:06.281Z,3.97
2018-12-10T13:38:36.962Z,3.90
2018-12-10T13:41:04.860Z,4.20
2018-12-10T13:43:33.188Z,4.90
2018-12-10T13:46:01.544Z,3.50
2018-12-10T13:48:29.911Z,3.87
2018-12-10T13:50:58.198Z,3.97
2018-12-10T13:53:26.578Z,5.33
2018-12-10T13:55:54.965Z,4.80
2018-12-10T13:58:23.255Z,5.60
2018-12-10T14:00:51.564Z,3.43
2018-12-10T14:03:19.872Z,4.03
2018-12-10T14:05:48.169Z,3.67
2018-12-10T14:08:16.465Z,3.77
2018-12-10T14:10:44.753Z,3.43
2018-12-10T14:13:13.054Z,3.60
2018-12-10T14:15:41.366Z,3.60
2018-12-10T14:18:09.677Z,3.50
2018-12-10T14:20:37.966Z,2.80
2018-12-10T14:23:06.271Z,3.30
2018-12-10T14:25:34.536Z,3.03
2018-12-10T14:28:02.829Z,5.00
2018-12-10T14:30:31.227Z,3.43
2018-12-10T14:32:59.549Z,2.97
2018-12-10T14:35:27.882Z,2.93
2018-12-10T14:37:56.182Z,4.40
2018-12-10T14:40:24.479Z,3.90
2018-12-10T14:42:54.623Z,2.97
2018-12-10T14:45:22.955Z,3.50
2018-12-10T14:47:53.921Z,5.83
2018-12-10T14:50:22.239Z,2.60
2018-12-10T14:52:50.727Z,9.30
2018-12-10T14:55:19.040Z,9.90
2018-12-10T14:57:47.384Z,9.70
2018-12-10T15:00:15.689Z,6.30
2018-12-10T15:02:44.003Z,9.07
2018-12-10T15:05:12.537Z,3.07
2018-12-10T15:07:40.873Z,5.50
2018-12-10T15:10:10.226Z,3.70
2018-12-10T15:12:38.494Z,3.10
2018-12-10T15:15:08.525Z,3.37
2018-12-10T15:17:36.857Z,3.27
2018-12-10T15:20:09.695Z,4.50
2018-12-10T15:22:38.010Z,3.30
2018-12-10T15:25:07.277Z,2.63
2018-12-10T15:27:36.185Z,2.53
2018-12-10T15:30:06.824Z,3.07
2018-12-10T15:32:35.114Z,2.77
2018-12-10T15:35:03.573Z,2.40
2018-12-10T15:37:31.875Z,3.10
2018-12-10T15:40:00.207Z,3.80
2018-12-10T15:42:28.535Z,2.60
2018-12-10T15:44:56.810Z,2.57
2018-12-10T15:47:25.110Z,2.43
2018-12-10T15:49:53.394Z,2.33
2018-12-10T15:52:21.748Z,3.27
2018-12-10T15:54:50.041Z,3.30
2018-12-10T15:57:18.372Z,2.53
2018-12-10T15:59:46.687Z,2.67
2018-12-10T16:02:15.012Z,2.30
2018-12-10T16:04:43.344Z,4.07
2018-12-10T16:07:11.650Z,2.30
2018-12-10T16:09:40.019Z,2.57
2018-12-10T16:12:08.304Z,2.20
2018-12-10T16:14:36.627Z,2.37
2018-12-10T16:17:04.903Z,2.67
2018-12-10T16:19:33.223Z,2.27
2018-12-10T16:22:01.517Z,2.37
2018-12-10T16:24:29.820Z,2.33
2018-12-10T16:26:58.159Z,2.40
2018-12-10T16:29:26.591Z,2.40
2018-12-10T16:31:54.901Z,2.53
2018-12-10T16:34:23.303Z,2.60
2018-12-10T16:36:51.600Z,2.37
2018-12-10T16:39:19.932Z,2.20
2018-12-10T16:41:48.221Z,3.10
2018-12-10T16:44:16.530Z,2.47
2018-12-10T16:46:44.797Z,2.00
2018-12-10T16:49:13.114Z,2.43
2018-12-10T16:51:41.447Z,2.60
2018-12-10T16:54:09.759Z,2.43
2018-12-10T16:56:38.083Z,2.40
2018-12-10T16:59:06.375Z,2.37
2018-12-10T17:01:34.793Z,2.47
2018-12-10T17:04:03.085Z,2.40
2018-12-10T17:06:31.417Z,3.47
2018-12-10T17:08:59.933Z,2.20
2018-12-10T17:11:28.561Z,2.60
2018-12-10T17:13:57.285Z,2.60
2018-12-10T17:16:25.611Z,2.20
2018-12-10T17:18:53.947Z,2.30
2018-12-10T17:21:22.261Z,2.27
2018-12-10T17:23:50.644Z,2.00
2018-12-10T17:26:18.954Z,2.10
2018-12-10T17:28:47.263Z,2.20
2018-12-10T17:31:15.617Z,2.10
2018-12-10T17:33:43.921Z,2.07
2018-12-10T17:36:12.243Z,2.10
2018-12-10T17:38:40.561Z,1.93
2018-12-10T17:41:08.855Z,2.67
2018-12-10T17:43:37.204Z,2.30
2018-12-10T17:46:05.504Z,1.90
2018-12-10T17:48:33.814Z,2.30
2018-12-10T17:51:02.099Z,2.27
2018-12-10T17:53:30.426Z,2.30
2018-12-10T17:55:58.744Z,2.17
2018-12-10T17:58:27.133Z,2.27
2018-12-10T18:00:55.488Z,2.10
2018-12-10T18:03:23.819Z,2.10
2018-12-10T18:05:52.179Z,1.70
2018-12-10T18:08:20.533Z,1.93
2018-12-10T18:10:48.902Z,2.00
2018-12-10T18:13:17.253Z,1.70
2018-12-10T18:15:45.587Z,1.90
2018-12-10T18:18:13.989Z,1.90
2018-12-10T18:20:42.325Z,1.93
2018-12-10T18:23:10.695Z,2.10
2018-12-10T18:25:39.021Z,2.13
2018-12-10T18:28:07.373Z,1.90
2018-12-10T18:30:36.147Z,2.30
2018-12-10T18:33:04.571Z,1.77
2018-12-10T18:35:32.940Z,1.93
2018-12-10T18:38:01.308Z,1.80
2018-12-10T18:40:29.707Z,1.70
2018-12-10T18:42:58.101Z,1.87
2018-12-10T18:45:26.902Z,2.20
2018-12-10T18:47:55.763Z,1.70
2018-12-10T18:50:24.137Z,2.07
2018-12-10T18:52:52.543Z,1.77
2018-12-10T18:55:20.919Z,1.60
2018-12-10T18:57:49.337Z,1.67
2018-12-10T19:00:17.718Z,2.07
2018-12-10T19:02:46.213Z,1.80
2018-12-10T19:05:14.585Z,2.00
2018-12-10T19:07:42.979Z,1.80
2018-12-10T19:10:11.358Z,1.70
2018-12-10T19:12:40.061Z,1.80
2018-12-10T19:15:10.072Z,1.83
2018-12-10T19:17:38.453Z,1.40
2018-12-10T19:20:07.442Z,1.67
2018-12-10T19:22:35.828Z,1.83
2018-12-10T19:25:04.272Z,1.93
2018-12-10T19:27:33.057Z,2.60
2018-12-10T19:30:01.465Z,1.90
2018-12-10T19:32:29.909Z,2.00
2018-12-10T19:34:58.371Z,1.63
2018-12-10T19:37:26.801Z,1.50
2018-12-10T19:39:55.892Z,1.70
2018-12-10T19:42:24.856Z,1.87
2018-12-10T19:44:53.523Z,1.70
2018-12-10T19:47:22.713Z,2.67
2018-12-10T19:49:51.130Z,1.70
2018-12-10T19:52:19.533Z,1.90
2018-12-10T19:54:48.011Z,1.77
2018-12-10T19:57:17.116Z,1.80
2018-12-10T19:59:45.949Z,1.70
2018-12-10T20:02:14.494Z,2.57
2018-12-10T20:04:43.489Z,1.57
2018-12-10T20:07:12.343Z,1.60
2018-12-10T20:09:41.382Z,2.30
2018-12-10T20:12:10.737Z,1.80
2018-12-10T20:14:39.148Z,1.97
2018-12-10T20:17:09.252Z,2.13
2018-12-10T20:19:38.421Z,3.87
2018-12-10T20:22:06.828Z,1.60
2018-12-10T20:25:39.073Z,7.87
2018-12-10T20:28:07.907Z,4.97
2018-12-10T20:30:37.009Z,3.73
2018-12-10T20:33:05.785Z,1.73
2018-12-10T20:35:34.940Z,1.87
2018-12-10T20:38:03.403Z,3.07
2018-12-10T20:40:32.504Z,2.40
2018-12-10T20:43:00.947Z,6.47
2018-12-10T20:45:29.393Z,1.67
2018-12-10T20:47:57.792Z,2.20
2018-12-10T20:50:27.180Z,2.03
2018-12-10T20:52:55.608Z,1.97
2018-12-10T20:55:24.043Z,1.70
2018-12-10T20:57:53.434Z,4.20
2018-12-10T21:00:21.845Z,1.97
2018-12-10T21:02:50.538Z,3.73
2018-12-10T21:05:22.733Z,5.77
2018-12-10T21:07:51.512Z,2.37
2018-12-10T21:10:20.168Z,2.37
2018-12-10T21:12:49.564Z,1.40
2018-12-10T21:15:17.978Z,4.83
2018-12-10T21:17:46.487Z,4.70
2018-12-10T21:20:14.887Z,5.40
2018-12-10T21:22:43.284Z,1.53
2018-12-10T21:25:11.661Z,1.60
2018-12-10T21:27:40.421Z,3.53
2018-12-10T21:30:08.807Z,2.53
2018-12-10T21:32:37.228Z,4.47
2018-12-10T21:35:05.704Z,2.20
2018-12-10T21:37:34.077Z,6.93
2018-12-10T21:40:02.462Z,9.93
2018-12-10T21:42:30.818Z,2.80
2018-12-10T21:44:59.222Z,7.80
2018-12-10T21:47:27.619Z,4.77
2018-12-10T21:49:56.002Z,1.80
2018-12-10T21:52:24.387Z,3.80
2018-12-10T21:54:52.844Z,2.40
2018-12-10T21:57:21.978Z,1.97
2018-12-10T21:59:50.380Z,2.00
2018-12-10T22:02:18.737Z,1.53
2018-12-10T22:04:47.077Z,3.57
2018-12-10T22:07:15.392Z,2.23
2018-12-10T22:09:43.721Z,2.30
2018-12-10T22:12:12.583Z,1.63
2018-12-10T22:14:40.937Z,1.50
2018-12-10T22:17:09.257Z,2.97
2018-12-10T22:19:37.567Z,3.80
2018-12-10T22:22:05.875Z,1.73
2018-12-10T22:24:34.180Z,2.57
2018-12-10T22:27:02.471Z,3.13
2018-12-10T22:29:30.759Z,1.53
2018-12-10T22:31:59.054Z,7.33
2018-12-10T22:34:27.336Z,1.57
2018-12-10T22:36:55.642Z,2.87
2018-12-10T22:39:30.492Z,2.57
2018-12-10T22:41:58.781Z,1.77
2018-12-10T22:44:27.086Z,3.23
2018-12-10T22:46:55.390Z,1.20
2018-12-10T22:49:23.702Z,2.40
2018-12-10T22:51:52.010Z,1.30
2018-12-10T22:54:20.308Z,6.73
2018-12-10T22:56:48.616Z,1.67
2018-12-10T22:59:16.885Z,1.20
2018-12-10T23:01:45.185Z,1.30
2018-12-10T23:04:13.480Z,1.43
2018-12-10T23:06:41.809Z,1.23
2018-12-10T23:09:10.141Z,1.40
2018-12-10T23:11:38.430Z,1.63
2018-12-10T23:14:06.816Z,1.33
2018-12-10T23:16:35.144Z,1.17
2018-12-10T23:19:03.462Z,1.20
2018-12-10T23:21:31.749Z,1.40
2018-12-10T23:24:00.039Z,2.20
2018-12-10T23:26:28.355Z,1.40
2018-12-10T23:28:56.640Z,1.40
2018-12-10T23:31:24.897Z,1.10
2018-12-10T23:33:53.274Z,1.20
2018-12-10T23:36:21.561Z,2.83
2018-12-10T23:38:49.887Z,1.40
2018-12-10T23:41:18.177Z,1.10
2018-12-10T23:43:46.511Z,1.37
2018-12-10T23:46:14.809Z,1.17
2018-12-10T23:48:43.093Z,1.20
2018-12-10T23:51:11.405Z,1.40
2018-12-10T23:53:39.711Z,1.40
2018-12-10T23:56:08.007Z,2.20
2018-12-10T23:58:36.303Z,1.17
